sensor_id;sensor_type;location;lat;lon;timestamp;temperature;humidity
1680;DHT22;838;51.794;12.258;2023-03-11T00:02:14;2.00;59.10
1680;DHT22;838;51.794;12.258;2023-03-11T00:04:40;2.00;59.10
1680;DHT22;838;51.794;12.258;2023-03-11T00:07:07;2.00;59.10
1680;DHT22;838;51.794;12.258;2023-03-11T00:09:33;2.00;59.20
1680;DHT22;838;51.794;12.258;2023-03-11T00:12:00;1.90;58.10
1680;DHT22;838;51.794;12.258;2023-03-11T00:14:26;1.90;59.40
1680;DHT22;838;51.794;12.258;2023-03-11T00:16:52;1.80;59.90
1680;DHT22;838;51.794;12.258;2023-03-11T00:19:17;1.80;59.80
1680;DHT22;838;51.794;12.258;2023-03-11T00:21:43;1.80;60.90
1680;DHT22;838;51.794;12.258;2023-03-11T00:24:09;1.80;60.50
1680;DHT22;838;51.794;12.258;2023-03-11T00:26:35;1.80;60.80
1680;DHT22;838;51.794;12.258;2023-03-11T00:29:01;1.80;61.00
1680;DHT22;838;51.794;12.258;2023-03-11T00:31:27;1.70;61.50
1680;DHT22;838;51.794;12.258;2023-03-11T00:33:53;1.70;62.80
1680;DHT22;838;51.794;12.258;2023-03-11T00:36:23;1.60;62.50
1680;DHT22;838;51.794;12.258;2023-03-11T00:38:53;1.70;63.30
1680;DHT22;838;51.794;12.258;2023-03-11T00:41:19;1.60;63.40
1680;DHT22;838;51.794;12.258;2023-03-11T00:43:45;1.60;64.40
1680;DHT22;838;51.794;12.258;2023-03-11T00:46:10;1.60;64.20
1680;DHT22;838;51.794;12.258;2023-03-11T00:48:36;1.60;64.20
1680;DHT22;838;51.794;12.258;2023-03-11T00:51:02;1.60;64.90
1680;DHT22;838;51.794;12.258;2023-03-11T00:53:28;1.60;65.30
1680;DHT22;838;51.794;12.258;2023-03-11T00:55:54;1.60;66.30
1680;DHT22;838;51.794;12.258;2023-03-11T00:58:19;1.60;66.00
1680;DHT22;838;51.794;12.258;2023-03-11T01:00:47;1.50;68.00
1680;DHT22;838;51.794;12.258;2023-03-11T01:03:13;1.50;68.80
1680;DHT22;838;51.794;12.258;2023-03-11T01:05:38;1.50;69.60
1680;DHT22;838;51.794;12.258;2023-03-11T01:08:05;1.50;70.40
1680;DHT22;838;51.794;12.258;2023-03-11T01:10:32;1.50;71.00
1680;DHT22;838;51.794;12.258;2023-03-11T01:12:57;1.40;71.40
1680;DHT22;838;51.794;12.258;2023-03-11T01:15:28;1.40;71.50
1680;DHT22;838;51.794;12.258;2023-03-11T01:17:54;1.40;71.40
1680;DHT22;838;51.794;12.258;2023-03-11T01:20:20;1.40;72.40
1680;DHT22;838;51.794;12.258;2023-03-11T01:22:46;1.40;72.80
1680;DHT22;838;51.794;12.258;2023-03-11T01:25:13;1.40;72.90
1680;DHT22;838;51.794;12.258;2023-03-11T01:27:39;1.40;73.20
1680;DHT22;838;51.794;12.258;2023-03-11T01:30:05;1.40;74.00
1680;DHT22;838;51.794;12.258;2023-03-11T01:32:31;1.40;74.40
1680;DHT22;838;51.794;12.258;2023-03-11T01:34:57;1.40;74.40
1680;DHT22;838;51.794;12.258;2023-03-11T01:37:23;1.40;74.40
1680;DHT22;838;51.794;12.258;2023-03-11T01:39:48;1.60;74.40
1680;DHT22;838;51.794;12.258;2023-03-11T01:42:14;1.40;74.60
1680;DHT22;838;51.794;12.258;2023-03-11T01:44:40;1.40;74.70
1680;DHT22;838;51.794;12.258;2023-03-11T01:49:34;1.30;75.40
1680;DHT22;838;51.794;12.258;2023-03-11T01:52:02;1.40;75.30
1680;DHT22;838;51.794;12.258;2023-03-11T01:54:34;1.40;75.20
1680;DHT22;838;51.794;12.258;2023-03-11T01:57:04;1.40;75.20
1680;DHT22;838;51.794;12.258;2023-03-11T01:59:35;1.40;74.80
1680;DHT22;838;51.794;12.258;2023-03-11T02:04:38;1.40;74.70
1680;DHT22;838;51.794;12.258;2023-03-11T02:07:06;1.40;74.70
1680;DHT22;838;51.794;12.258;2023-03-11T02:09:32;1.40;74.80
1680;DHT22;838;51.794;12.258;2023-03-11T02:11:58;1.40;74.20
1680;DHT22;838;51.794;12.258;2023-03-11T02:14:25;1.40;74.00
1680;DHT22;838;51.794;12.258;2023-03-11T02:16:52;1.40;74.00
1680;DHT22;838;51.794;12.258;2023-03-11T02:19:30;1.40;74.60
1680;DHT22;838;51.794;12.258;2023-03-11T02:21:58;1.40;76.00
1680;DHT22;838;51.794;12.258;2023-03-11T02:24:39;1.40;76.90
1680;DHT22;838;51.794;12.258;2023-03-11T02:27:11;1.40;76.90
1680;DHT22;838;51.794;12.258;2023-03-11T02:29:38;1.40;76.60
1680;DHT22;838;51.794;12.258;2023-03-11T02:32:07;1.40;77.10
1680;DHT22;838;51.794;12.258;2023-03-11T02:34:35;1.40;77.10
1680;DHT22;838;51.794;12.258;2023-03-11T02:37:11;1.40;76.40
1680;DHT22;838;51.794;12.258;2023-03-11T02:39:46;1.40;76.40
1680;DHT22;838;51.794;12.258;2023-03-11T02:42:27;1.20;76.20
1680;DHT22;838;51.794;12.258;2023-03-11T02:45:02;1.40;75.60
1680;DHT22;838;51.794;12.258;2023-03-11T02:47:29;1.40;75.40
1680;DHT22;838;51.794;12.258;2023-03-11T02:49:55;1.40;75.00
1680;DHT22;838;51.794;12.258;2023-03-11T02:52:24;1.40;74.30
1680;DHT22;838;51.794;12.258;2023-03-11T02:54:49;1.40;73.80
1680;DHT22;838;51.794;12.258;2023-03-11T02:57:15;1.40;73.40
1680;DHT22;838;51.794;12.258;2023-03-11T02:59:41;1.40;72.00
1680;DHT22;838;51.794;12.258;2023-03-11T03:02:06;1.40;72.00
1680;DHT22;838;51.794;12.258;2023-03-11T03:04:32;1.40;71.40
1680;DHT22;838;51.794;12.258;2023-03-11T03:06:58;1.40;71.30
1680;DHT22;838;51.794;12.258;2023-03-11T03:09:23;1.40;70.50
1680;DHT22;838;51.794;12.258;2023-03-11T03:11:49;1.40;70.00
1680;DHT22;838;51.794;12.258;2023-03-11T03:14:15;1.40;70.20
1680;DHT22;838;51.794;12.258;2023-03-11T03:16:40;1.40;70.30
1680;DHT22;838;51.794;12.258;2023-03-11T03:19:06;1.40;69.60
1680;DHT22;838;51.794;12.258;2023-03-11T03:21:32;1.40;69.20
1680;DHT22;838;51.794;12.258;2023-03-11T03:23:57;1.40;69.00
1680;DHT22;838;51.794;12.258;2023-03-11T03:26:23;1.40;68.40
1680;DHT22;838;51.794;12.258;2023-03-11T03:28:49;1.40;67.10
1680;DHT22;838;51.794;12.258;2023-03-11T03:31:15;1.40;67.10
1680;DHT22;838;51.794;12.258;2023-03-11T03:33:41;1.40;67.10
1680;DHT22;838;51.794;12.258;2023-03-11T03:36:11;1.40;66.70
1680;DHT22;838;51.794;12.258;2023-03-11T03:38:37;1.40;64.90
1680;DHT22;838;51.794;12.258;2023-03-11T03:41:03;1.40;65.50
1680;DHT22;838;51.794;12.258;2023-03-11T03:43:29;1.40;64.30
1680;DHT22;838;51.794;12.258;2023-03-11T03:45:59;1.50;64.50
1680;DHT22;838;51.794;12.258;2023-03-11T03:48:26;1.40;63.20
1680;DHT22;838;51.794;12.258;2023-03-11T03:50:51;1.40;62.60
1680;DHT22;838;51.794;12.258;2023-03-11T03:53:17;1.40;62.50
1680;DHT22;838;51.794;12.258;2023-03-11T03:55:43;1.40;62.80
1680;DHT22;838;51.794;12.258;2023-03-11T03:58:09;1.40;62.20
1680;DHT22;838;51.794;12.258;2023-03-11T04:00:35;1.40;62.40
1680;DHT22;838;51.794;12.258;2023-03-11T04:03:00;1.40;61.70
1680;DHT22;838;51.794;12.258;2023-03-11T04:05:27;1.40;62.30
1680;DHT22;838;51.794;12.258;2023-03-11T04:07:53;1.40;62.70
1680;DHT22;838;51.794;12.258;2023-03-11T04:10:19;1.40;62.90
1680;DHT22;838;51.794;12.258;2023-03-11T04:12:45;1.40;63.20
1680;DHT22;838;51.794;12.258;2023-03-11T04:15:11;1.40;61.90
1680;DHT22;838;51.794;12.258;2023-03-11T04:17:37;1.40;62.10
1680;DHT22;838;51.794;12.258;2023-03-11T04:20:03;1.40;61.10
1680;DHT22;838;51.794;12.258;2023-03-11T04:22:32;1.40;60.80
1680;DHT22;838;51.794;12.258;2023-03-11T04:24:57;1.40;61.90
1680;DHT22;838;51.794;12.258;2023-03-11T04:27:23;1.40;62.10
1680;DHT22;838;51.794;12.258;2023-03-11T04:29:49;1.40;60.70
1680;DHT22;838;51.794;12.258;2023-03-11T04:32:15;1.40;60.40
1680;DHT22;838;51.794;12.258;2023-03-11T04:34:40;1.40;59.70
1680;DHT22;838;51.794;12.258;2023-03-11T04:37:06;1.40;59.10
1680;DHT22;838;51.794;12.258;2023-03-11T04:39:32;1.40;59.30
1680;DHT22;838;51.794;12.258;2023-03-11T04:41:58;1.40;59.50
1680;DHT22;838;51.794;12.258;2023-03-11T04:44:24;1.40;58.90
1680;DHT22;838;51.794;12.258;2023-03-11T04:46:49;1.50;59.30
1680;DHT22;838;51.794;12.258;2023-03-11T04:49:15;1.50;57.70
1680;DHT22;838;51.794;12.258;2023-03-11T04:51:41;1.40;56.60
1680;DHT22;838;51.794;12.258;2023-03-11T04:54:07;1.50;56.80
1680;DHT22;838;51.794;12.258;2023-03-11T04:56:32;1.50;56.60
1680;DHT22;838;51.794;12.258;2023-03-11T04:58:58;1.50;54.70
1680;DHT22;838;51.794;12.258;2023-03-11T05:01:24;1.50;53.70
1680;DHT22;838;51.794;12.258;2023-03-11T05:03:50;1.40;53.20
1680;DHT22;838;51.794;12.258;2023-03-11T05:06:16;1.40;52.50
1680;DHT22;838;51.794;12.258;2023-03-11T05:08:41;1.50;53.80
1680;DHT22;838;51.794;12.258;2023-03-11T05:11:07;1.50;51.80
1680;DHT22;838;51.794;12.258;2023-03-11T05:13:33;1.50;50.20
1680;DHT22;838;51.794;12.258;2023-03-11T05:15:59;1.50;51.40
1680;DHT22;838;51.794;12.258;2023-03-11T05:18:24;1.50;50.70
1680;DHT22;838;51.794;12.258;2023-03-11T05:20:50;1.60;49.00
1680;DHT22;838;51.794;12.258;2023-03-11T05:23:17;1.50;47.30
1680;DHT22;838;51.794;12.258;2023-03-11T05:25:43;1.50;48.40
1680;DHT22;838;51.794;12.258;2023-03-11T05:28:09;1.50;48.00
1680;DHT22;838;51.794;12.258;2023-03-11T05:30:35;1.50;47.70
1680;DHT22;838;51.794;12.258;2023-03-11T05:33:00;1.50;47.30
1680;DHT22;838;51.794;12.258;2023-03-11T05:35:26;1.50;47.30
1680;DHT22;838;51.794;12.258;2023-03-11T05:37:52;1.50;47.00
1680;DHT22;838;51.794;12.258;2023-03-11T05:40:19;1.50;47.40
1680;DHT22;838;51.794;12.258;2023-03-11T05:42:46;1.50;47.50
1680;DHT22;838;51.794;12.258;2023-03-11T05:45:12;1.60;46.20
1680;DHT22;838;51.794;12.258;2023-03-11T05:47:37;1.60;45.50
1680;DHT22;838;51.794;12.258;2023-03-11T05:50:04;1.60;46.80
1680;DHT22;838;51.794;12.258;2023-03-11T05:52:30;1.60;45.70
1680;DHT22;838;51.794;12.258;2023-03-11T05:54:57;1.60;45.40
1680;DHT22;838;51.794;12.258;2023-03-11T05:57:23;1.70;45.90
1680;DHT22;838;51.794;12.258;2023-03-11T05:59:49;1.70;45.70
1680;DHT22;838;51.794;12.258;2023-03-11T06:02:14;1.70;45.70
1680;DHT22;838;51.794;12.258;2023-03-11T06:04:40;1.80;45.00
1680;DHT22;838;51.794;12.258;2023-03-11T06:07:06;1.80;44.60
1680;DHT22;838;51.794;12.258;2023-03-11T06:09:32;1.80;43.90
1680;DHT22;838;51.794;12.258;2023-03-11T06:12:02;1.80;43.90
1680;DHT22;838;51.794;12.258;2023-03-11T06:14:27;1.80;44.40
1680;DHT22;838;51.794;12.258;2023-03-11T06:16:56;1.80;43.80
1680;DHT22;838;51.794;12.258;2023-03-11T06:19:22;1.90;44.40
1680;DHT22;838;51.794;12.258;2023-03-11T06:21:48;1.90;43.70
1680;DHT22;838;51.794;12.258;2023-03-11T06:24:13;1.90;43.10
1680;DHT22;838;51.794;12.258;2023-03-11T06:26:39;1.90;43.60
1680;DHT22;838;51.794;12.258;2023-03-11T06:29:08;1.90;42.80
1680;DHT22;838;51.794;12.258;2023-03-11T06:31:36;1.90;42.90
1680;DHT22;838;51.794;12.258;2023-03-11T06:34:04;1.90;42.30
1680;DHT22;838;51.794;12.258;2023-03-11T06:36:30;1.90;42.00
1680;DHT22;838;51.794;12.258;2023-03-11T06:38:56;1.80;41.30
1680;DHT22;838;51.794;12.258;2023-03-11T06:41:22;1.80;41.20
1680;DHT22;838;51.794;12.258;2023-03-11T06:43:48;1.80;41.80
1680;DHT22;838;51.794;12.258;2023-03-11T06:46:19;1.80;41.70
1680;DHT22;838;51.794;12.258;2023-03-11T06:48:46;1.90;41.80
1680;DHT22;838;51.794;12.258;2023-03-11T06:51:12;1.90;41.20
1680;DHT22;838;51.794;12.258;2023-03-11T06:53:38;1.90;41.80
1680;DHT22;838;51.794;12.258;2023-03-11T06:56:11;1.90;40.20
1680;DHT22;838;51.794;12.258;2023-03-11T06:58:39;1.80;39.70
1680;DHT22;838;51.794;12.258;2023-03-11T07:01:14;1.90;39.40
1680;DHT22;838;51.794;12.258;2023-03-11T07:03:41;1.90;39.80
1680;DHT22;838;51.794;12.258;2023-03-11T07:06:15;1.80;39.90
1680;DHT22;838;51.794;12.258;2023-03-11T07:08:41;1.80;40.50
1680;DHT22;838;51.794;12.258;2023-03-11T07:11:09;1.90;40.60
1680;DHT22;838;51.794;12.258;2023-03-11T07:13:36;1.90;40.40
1680;DHT22;838;51.794;12.258;2023-03-11T07:16:08;2.00;40.40
1680;DHT22;838;51.794;12.258;2023-03-11T07:18:35;2.00;40.50
1680;DHT22;838;51.794;12.258;2023-03-11T07:21:02;2.10;40.70
1680;DHT22;838;51.794;12.258;2023-03-11T07:23:29;2.10;39.50
1680;DHT22;838;51.794;12.258;2023-03-11T07:25:55;2.10;40.40
1680;DHT22;838;51.794;12.258;2023-03-11T07:28:22;2.20;40.30
1680;DHT22;838;51.794;12.258;2023-03-11T07:30:48;2.30;40.50
1680;DHT22;838;51.794;12.258;2023-03-11T07:33:14;2.30;40.30
1680;DHT22;838;51.794;12.258;2023-03-11T07:35:40;2.30;39.10
1680;DHT22;838;51.794;12.258;2023-03-11T07:38:05;2.30;39.80
1680;DHT22;838;51.794;12.258;2023-03-11T07:40:31;2.40;39.20
1680;DHT22;838;51.794;12.258;2023-03-11T07:42:57;2.40;39.50
1680;DHT22;838;51.794;12.258;2023-03-11T07:45:23;2.40;39.40
1680;DHT22;838;51.794;12.258;2023-03-11T07:47:49;2.40;39.70
1680;DHT22;838;51.794;12.258;2023-03-11T07:50:15;2.50;40.60
1680;DHT22;838;51.794;12.258;2023-03-11T07:52:42;2.50;40.00
1680;DHT22;838;51.794;12.258;2023-03-11T07:55:08;2.40;40.10
1680;DHT22;838;51.794;12.258;2023-03-11T07:57:34;2.40;40.10
1680;DHT22;838;51.794;12.258;2023-03-11T08:00:00;2.40;39.80
1680;DHT22;838;51.794;12.258;2023-03-11T08:02:25;2.40;39.10
1680;DHT22;838;51.794;12.258;2023-03-11T08:04:51;2.30;39.40
1680;DHT22;838;51.794;12.258;2023-03-11T08:07:17;2.30;39.00
1680;DHT22;838;51.794;12.258;2023-03-11T08:09:45;2.30;39.30
1680;DHT22;838;51.794;12.258;2023-03-11T08:12:11;2.40;38.90
1680;DHT22;838;51.794;12.258;2023-03-11T08:14:36;2.50;37.90
1680;DHT22;838;51.794;12.258;2023-03-11T08:17:04;2.70;37.90
1680;DHT22;838;51.794;12.258;2023-03-11T08:19:30;3.00;37.80
1680;DHT22;838;51.794;12.258;2023-03-11T08:21:56;3.20;33.30
1680;DHT22;838;51.794;12.258;2023-03-11T08:24:22;3.20;32.40
1680;DHT22;838;51.794;12.258;2023-03-11T08:26:47;3.10;30.20
1680;DHT22;838;51.794;12.258;2023-03-11T08:29:13;3.20;30.60
1680;DHT22;838;51.794;12.258;2023-03-11T08:31:39;3.30;31.30
1680;DHT22;838;51.794;12.258;2023-03-11T08:34:07;3.30;32.30
1680;DHT22;838;51.794;12.258;2023-03-11T08:36:33;3.40;31.00
1680;DHT22;838;51.794;12.258;2023-03-11T08:38:59;3.60;31.40
1680;DHT22;838;51.794;12.258;2023-03-11T08:41:26;3.50;29.00
1680;DHT22;838;51.794;12.258;2023-03-11T08:43:51;3.30;29.30
1680;DHT22;838;51.794;12.258;2023-03-11T08:46:27;3.20;29.60
1680;DHT22;838;51.794;12.258;2023-03-11T08:48:53;2.90;30.70
1680;DHT22;838;51.794;12.258;2023-03-11T08:51:19;2.80;31.50
1680;DHT22;838;51.794;12.258;2023-03-11T08:53:45;2.80;32.40
1680;DHT22;838;51.794;12.258;2023-03-11T08:56:11;2.80;32.80
1680;DHT22;838;51.794;12.258;2023-03-11T08:58:37;2.50;32.10
1680;DHT22;838;51.794;12.258;2023-03-11T09:01:04;2.50;32.80
1680;DHT22;838;51.794;12.258;2023-03-11T09:03:34;2.60;33.60
1680;DHT22;838;51.794;12.258;2023-03-11T09:06:04;2.70;34.20
1680;DHT22;838;51.794;12.258;2023-03-11T09:08:31;2.60;32.20
1680;DHT22;838;51.794;12.258;2023-03-11T09:10:57;2.60;32.40
1680;DHT22;838;51.794;12.258;2023-03-11T09:13:22;2.50;32.70
1680;DHT22;838;51.794;12.258;2023-03-11T09:15:49;2.70;34.10
1680;DHT22;838;51.794;12.258;2023-03-11T09:18:16;2.90;33.00
1680;DHT22;838;51.794;12.258;2023-03-11T09:20:42;2.90;30.30
1680;DHT22;838;51.794;12.258;2023-03-11T09:23:09;2.90;30.50
1680;DHT22;838;51.794;12.258;2023-03-11T09:25:35;2.80;30.00
1680;DHT22;838;51.794;12.258;2023-03-11T09:28:01;2.90;31.30
1680;DHT22;838;51.794;12.258;2023-03-11T09:30:26;2.90;30.00
1680;DHT22;838;51.794;12.258;2023-03-11T09:32:52;3.10;30.90
1680;DHT22;838;51.794;12.258;2023-03-11T09:35:18;3.50;31.00
1680;DHT22;838;51.794;12.258;2023-03-11T09:37:43;3.70;27.90
1680;DHT22;838;51.794;12.258;2023-03-11T09:40:15;3.60;25.40
1680;DHT22;838;51.794;12.258;2023-03-11T09:43:19;3.60;26.90
1680;DHT22;838;51.794;12.258;2023-03-11T09:46:03;3.80;27.10
1680;DHT22;838;51.794;12.258;2023-03-11T09:51:04;4.20;25.10
1680;DHT22;838;51.794;12.258;2023-03-11T09:53:46;4.50;25.10
1680;DHT22;838;51.794;12.258;2023-03-11T09:56:20;4.30;21.60
1680;DHT22;838;51.794;12.258;2023-03-11T09:58:49;4.10;20.80
1680;DHT22;838;51.794;12.258;2023-03-11T10:01:28;3.80;21.80
1680;DHT22;838;51.794;12.258;2023-03-11T10:03:59;3.90;23.30
1680;DHT22;838;51.794;12.258;2023-03-11T10:06:30;4.00;23.50
1680;DHT22;838;51.794;12.258;2023-03-11T10:12:12;3.90;23.30
1680;DHT22;838;51.794;12.258;2023-03-11T10:17:04;3.80;22.10
1680;DHT22;838;51.794;12.258;2023-03-11T10:19:54;3.70;23.50
1680;DHT22;838;51.794;12.258;2023-03-11T10:25:15;3.90;18.80
1680;DHT22;838;51.794;12.258;2023-03-11T10:28:02;3.60;18.90
1680;DHT22;838;51.794;12.258;2023-03-11T10:30:42;3.40;18.10
1680;DHT22;838;51.794;12.258;2023-03-11T10:33:30;3.30;19.10
1680;DHT22;838;51.794;12.258;2023-03-11T10:36:06;3.30;19.20
1680;DHT22;838;51.794;12.258;2023-03-11T10:38:39;3.30;17.50
1680;DHT22;838;51.794;12.258;2023-03-11T10:44:05;3.40;18.70
1680;DHT22;838;51.794;12.258;2023-03-11T10:46:31;3.40;18.10
1680;DHT22;838;51.794;12.258;2023-03-11T10:48:57;3.50;17.50
1680;DHT22;838;51.794;12.258;2023-03-11T10:51:26;3.40;18.00
1680;DHT22;838;51.794;12.258;2023-03-11T10:53:57;3.20;17.10
1680;DHT22;838;51.794;12.258;2023-03-11T10:56:33;3.30;17.50
1680;DHT22;838;51.794;12.258;2023-03-11T10:59:01;3.40;17.80
1680;DHT22;838;51.794;12.258;2023-03-11T11:01:28;3.40;17.20
1680;DHT22;838;51.794;12.258;2023-03-11T11:03:55;3.30;17.70
1680;DHT22;838;51.794;12.258;2023-03-11T11:11:31;3.10;19.40
1680;DHT22;838;51.794;12.258;2023-03-11T11:14:00;3.40;18.80
1680;DHT22;838;51.794;12.258;2023-03-11T11:16:27;3.60;18.30
1680;DHT22;838;51.794;12.258;2023-03-11T11:19:03;3.70;17.30
1680;DHT22;838;51.794;12.258;2023-03-11T11:21:37;3.70;16.20
1680;DHT22;838;51.794;12.258;2023-03-11T11:24:23;3.80;17.20
1680;DHT22;838;51.794;12.258;2023-03-11T11:27:21;3.80;17.50
1680;DHT22;838;51.794;12.258;2023-03-11T11:32:29;4.20;16.20
1680;DHT22;838;51.794;12.258;2023-03-11T11:37:24;5.10;15.70
1680;DHT22;838;51.794;12.258;2023-03-11T11:40:02;5.20;12.50
1680;DHT22;838;51.794;12.258;2023-03-11T11:42:46;5.20;12.60
1680;DHT22;838;51.794;12.258;2023-03-11T11:45:26;5.20;13.20
1680;DHT22;838;51.794;12.258;2023-03-11T11:47:56;5.30;11.50
1680;DHT22;838;51.794;12.258;2023-03-11T11:50:43;5.30;13.40
1680;DHT22;838;51.794;12.258;2023-03-11T11:56:03;4.60;11.10
1680;DHT22;838;51.794;12.258;2023-03-11T11:58:29;4.60;11.00
1680;DHT22;838;51.794;12.258;2023-03-11T12:12:36;5.00;10.20
1680;DHT22;838;51.794;12.258;2023-03-11T12:17:48;4.40;8.80
1680;DHT22;838;51.794;12.258;2023-03-11T12:20:26;4.30;9.40
1680;DHT22;838;51.794;12.258;2023-03-11T12:31:42;4.40;8.50
1680;DHT22;838;51.794;12.258;2023-03-11T12:34:11;4.40;8.50
1680;DHT22;838;51.794;12.258;2023-03-11T12:36:40;4.50;8.00
1680;DHT22;838;51.794;12.258;2023-03-11T12:39:29;4.50;9.50
1680;DHT22;838;51.794;12.258;2023-03-11T12:42:19;4.70;8.00
1680;DHT22;838;51.794;12.258;2023-03-11T12:44:47;4.70;6.80
1680;DHT22;838;51.794;12.258;2023-03-11T12:49:40;4.60;6.40
1680;DHT22;838;51.794;12.258;2023-03-11T12:54:41;4.60;8.40
1680;DHT22;838;51.794;12.258;2023-03-11T13:08:26;4.40;8.90
1680;DHT22;838;51.794;12.258;2023-03-11T13:10:57;4.30;8.60
1680;DHT22;838;51.794;12.258;2023-03-11T13:16:34;4.50;8.60
1680;DHT22;838;51.794;12.258;2023-03-11T13:18:48;4.50;8.90
1680;DHT22;838;51.794;12.258;2023-03-11T13:33:01;5.20;2.90
1680;DHT22;838;51.794;12.258;2023-03-11T13:40:48;4.90;5.00
1680;DHT22;838;51.794;12.258;2023-03-11T13:45:47;5.40;3.50
1680;DHT22;838;51.794;12.258;2023-03-11T13:48:41;5.40;2.30
1680;DHT22;838;51.794;12.258;2023-03-11T13:51:21;5.30;3.00
1680;DHT22;838;51.794;12.258;2023-03-11T13:54:03;5.10;1.70
1680;DHT22;838;51.794;12.258;2023-03-11T13:56:32;4.90;1.60
1680;DHT22;838;51.794;12.258;2023-03-11T13:59:24;4.90;3.60
1680;DHT22;838;51.794;12.258;2023-03-11T14:02:03;4.80;3.60
1680;DHT22;838;51.794;12.258;2023-03-11T14:04:31;5.10;2.30
1680;DHT22;838;51.794;12.258;2023-03-11T14:06:58;5.30;1.40
1680;DHT22;838;51.794;12.258;2023-03-11T14:09:26;5.40;1.60
1680;DHT22;838;51.794;12.258;2023-03-11T14:11:54;5.40;1.20
1680;DHT22;838;51.794;12.258;2023-03-11T14:14:36;5.10;1.00
1680;DHT22;838;51.794;12.258;2023-03-11T14:17:05;4.80;1.00
1680;DHT22;838;51.794;12.258;2023-03-11T14:19:34;4.70;1.00
1680;DHT22;838;51.794;12.258;2023-03-11T14:22:01;4.70;1.00
1680;DHT22;838;51.794;12.258;2023-03-11T14:24:30;4.70;1.50
1680;DHT22;838;51.794;12.258;2023-03-11T14:26:58;4.80;1.40
1680;DHT22;838;51.794;12.258;2023-03-11T14:29:39;4.90;2.20
1680;DHT22;838;51.794;12.258;2023-03-11T14:32:25;5.10;2.50
1680;DHT22;838;51.794;12.258;2023-03-11T14:34:51;4.90;1.00
1680;DHT22;838;51.794;12.258;2023-03-11T14:37:32;4.80;1.00
1680;DHT22;838;51.794;12.258;2023-03-11T14:39:58;4.50;1.00
1680;DHT22;838;51.794;12.258;2023-03-11T14:45:20;4.30;1.00
1680;DHT22;838;51.794;12.258;2023-03-11T14:47:52;4.30;1.00
1680;DHT22;838;51.794;12.258;2023-03-11T14:50:21;4.20;1.00
1680;DHT22;838;51.794;12.258;2023-03-11T14:55:57;4.10;1.00
1680;DHT22;838;51.794;12.258;2023-03-11T15:03:30;4.20;1.00
1680;DHT22;838;51.794;12.258;2023-03-11T15:08:47;4.50;1.00
1680;DHT22;838;51.794;12.258;2023-03-11T15:13:42;4.80;1.00
1680;DHT22;838;51.794;12.258;2023-03-11T15:16:30;5.00;1.00
1680;DHT22;838;51.794;12.258;2023-03-11T15:18:59;5.10;1.00
1680;DHT22;838;51.794;12.258;2023-03-11T15:21:25;5.10;1.00
1680;DHT22;838;51.794;12.258;2023-03-11T15:23:58;5.10;1.00
1680;DHT22;838;51.794;12.258;2023-03-11T15:26:29;5.20;1.00
1680;DHT22;838;51.794;12.258;2023-03-11T15:29:01;5.30;1.00
1680;DHT22;838;51.794;12.258;2023-03-11T15:31:31;5.30;1.00
1680;DHT22;838;51.794;12.258;2023-03-11T15:44:34;4.90;1.00
1680;DHT22;838;51.794;12.258;2023-03-11T15:47:01;4.70;1.00
1680;DHT22;838;51.794;12.258;2023-03-11T15:49:28;4.60;1.00
1680;DHT22;838;51.794;12.258;2023-03-11T15:52:01;4.60;1.00
1680;DHT22;838;51.794;12.258;2023-03-11T15:54:27;4.70;1.00
1680;DHT22;838;51.794;12.258;2023-03-11T15:56:55;4.70;1.00
1680;DHT22;838;51.794;12.258;2023-03-11T15:59:22;4.70;1.00
1680;DHT22;838;51.794;12.258;2023-03-11T16:01:48;4.70;1.00
1680;DHT22;838;51.794;12.258;2023-03-11T16:04:16;4.60;1.00
1680;DHT22;838;51.794;12.258;2023-03-11T16:06:43;4.60;1.00
1680;DHT22;838;51.794;12.258;2023-03-11T16:09:09;4.50;1.00
1680;DHT22;838;51.794;12.258;2023-03-11T16:11:35;4.40;1.00
1680;DHT22;838;51.794;12.258;2023-03-11T16:14:02;4.40;1.00
1680;DHT22;838;51.794;12.258;2023-03-11T16:16:28;4.30;1.00
1680;DHT22;838;51.794;12.258;2023-03-11T16:18:54;4.30;1.00
1680;DHT22;838;51.794;12.258;2023-03-11T16:21:21;4.20;1.00
1680;DHT22;838;51.794;12.258;2023-03-11T16:23:48;4.20;1.00
1680;DHT22;838;51.794;12.258;2023-03-11T16:26:14;4.10;1.00
1680;DHT22;838;51.794;12.258;2023-03-11T16:28:40;4.00;1.00
1680;DHT22;838;51.794;12.258;2023-03-11T16:31:07;3.90;1.00
1680;DHT22;838;51.794;12.258;2023-03-11T16:33:36;3.80;1.00
1680;DHT22;838;51.794;12.258;2023-03-11T16:36:03;3.70;1.00
1680;DHT22;838;51.794;12.258;2023-03-11T16:38:30;3.70;1.00
1680;DHT22;838;51.794;12.258;2023-03-11T16:40:59;3.80;1.00
1680;DHT22;838;51.794;12.258;2023-03-11T16:43:26;3.80;1.70
1680;DHT22;838;51.794;12.258;2023-03-11T16:45:52;3.90;1.40
1680;DHT22;838;51.794;12.258;2023-03-11T16:48:21;3.80;1.00
1680;DHT22;838;51.794;12.258;2023-03-11T16:50:47;3.70;1.50
1680;DHT22;838;51.794;12.258;2023-03-11T16:53:13;3.80;1.30
1680;DHT22;838;51.794;12.258;2023-03-11T16:55:43;3.80;1.50
1680;DHT22;838;51.794;12.258;2023-03-11T16:58:10;3.90;1.70
1680;DHT22;838;51.794;12.258;2023-03-11T17:00:36;3.90;1.50
1680;DHT22;838;51.794;12.258;2023-03-11T17:03:01;3.90;1.40
1680;DHT22;838;51.794;12.258;2023-03-11T17:05:28;3.70;1.50
1680;DHT22;838;51.794;12.258;2023-03-11T17:07:55;3.60;1.50
1680;DHT22;838;51.794;12.258;2023-03-11T17:10:28;3.60;2.00
1680;DHT22;838;51.794;12.258;2023-03-11T17:12:54;3.80;1.30
1680;DHT22;838;51.794;12.258;2023-03-11T17:15:19;3.70;1.20
1680;DHT22;838;51.794;12.258;2023-03-11T17:17:46;3.90;1.00
1680;DHT22;838;51.794;12.258;2023-03-11T17:20:11;3.90;1.00
1680;DHT22;838;51.794;12.258;2023-03-11T17:22:37;4.00;1.00
1680;DHT22;838;51.794;12.258;2023-03-11T17:25:04;4.10;1.00
1680;DHT22;838;51.794;12.258;2023-03-11T17:27:30;4.20;1.00
1680;DHT22;838;51.794;12.258;2023-03-11T17:29:58;4.30;1.00
1680;DHT22;838;51.794;12.258;2023-03-11T17:32:24;4.40;1.00
1680;DHT22;838;51.794;12.258;2023-03-11T17:34:50;4.40;1.00
1680;DHT22;838;51.794;12.258;2023-03-11T17:37:16;4.50;1.00
1680;DHT22;838;51.794;12.258;2023-03-11T17:39:43;4.30;1.00
1680;DHT22;838;51.794;12.258;2023-03-11T17:42:08;4.20;1.00
1680;DHT22;838;51.794;12.258;2023-03-11T17:44:34;4.00;1.00
1680;DHT22;838;51.794;12.258;2023-03-11T17:47:00;4.00;1.00
1680;DHT22;838;51.794;12.258;2023-03-11T17:49:26;4.00;1.00
1680;DHT22;838;51.794;12.258;2023-03-11T17:51:51;4.00;1.00
1680;DHT22;838;51.794;12.258;2023-03-11T17:54:17;4.00;1.00
1680;DHT22;838;51.794;12.258;2023-03-11T17:56:43;4.10;1.00
1680;DHT22;838;51.794;12.258;2023-03-11T17:59:09;3.90;1.00
1680;DHT22;838;51.794;12.258;2023-03-11T18:01:34;3.80;1.00
1680;DHT22;838;51.794;12.258;2023-03-11T18:04:00;3.70;1.30
1680;DHT22;838;51.794;12.258;2023-03-11T18:06:26;3.60;1.80
1680;DHT22;838;51.794;12.258;2023-03-11T18:08:52;3.40;2.20
1680;DHT22;838;51.794;12.258;2023-03-11T18:11:21;3.20;3.20
1680;DHT22;838;51.794;12.258;2023-03-11T18:13:47;3.20;3.00
1680;DHT22;838;51.794;12.258;2023-03-11T18:18:44;3.30;2.90
1680;DHT22;838;51.794;12.258;2023-03-11T18:21:15;3.40;2.60
1680;DHT22;838;51.794;12.258;2023-03-11T18:23:42;3.50;2.60
1680;DHT22;838;51.794;12.258;2023-03-11T18:26:09;3.40;2.60
1680;DHT22;838;51.794;12.258;2023-03-11T18:28:36;3.30;2.80
1680;DHT22;838;51.794;12.258;2023-03-11T18:31:16;3.20;3.90
1680;DHT22;838;51.794;12.258;2023-03-11T18:33:47;3.10;3.90